Sewickley, Pennsylvania
Current Conditions -  °F | °C
As of 8:51 PM on Monday 24 Nov 2014 (Local Time) from KPIT Reporting Station
Few Clouds Few Clouds  
Wind Chill: 42°   Ceiling: Unl
Heat Index: 48°   Visibility: 10mi
Dew Point: 37°   Wind: 14mph
Humidity: 66%   Direction: 250°WSW
Pressure: 29.75"   Gusts: 21mph
Location:  40.54°N, 80.18°W
Report Text: KPIT 250151Z 25012G18KT 10SM FEW028 09/03 A2975 RMK AO2 SLP081 T00890028
Loading
Personal Weather Stations






























Interactive Weather Map New forecast layout! Learn more

10-Day Weather Forecast

Advertisements
Track Severe Weather on mobile